Time;durP1;ratioP1;P1;durP2;ratioP2;P2;SDS_P1;SDS_P2;PMS_P1;PMS_P2;Temp;Humidity;BMP_temperature;BMP_pressure;BME280_temperature;BME280_humidity;BME280_pressure;Samples;Min_cycle;Max_cycle;Signal;HPM_P1;HPM_P2
2024/01/27 00:01:43;;;;;;;3.90;1.98;;;4.70;73.30;;;;;;4950084;28;20031;-63
2024/01/27 00:04:08;;;;;;;3.25;1.83;;;4.60;73.20;;;;;;4943662;28;20086;-62
2024/01/27 00:06:34;;;;;;;2.78;1.75;;;4.60;73.20;;;;;;4941920;28;20040;-62
2024/01/27 00:09:00;;;;;;;5.13;1.95;;;4.50;73.10;;;;;;4946467;28;20054;-63
2024/01/27 00:11:26;;;;;;;5.35;2.05;;;4.50;73.20;;;;;;4949204;28;20015;-62
2024/01/27 00:13:52;;;;;;;8.13;2.17;;;4.50;73.50;;;;;;4945174;28;20447;-63
2024/01/27 00:16:17;;;;;;;6.90;2.53;;;4.50;73.80;;;;;;4944549;28;20404;-63
2024/01/27 00:18:43;;;;;;;4.65;1.90;;;4.50;74.00;;;;;;4944355;28;20042;-63
2024/01/27 00:21:09;;;;;;;9.68;2.53;;;4.40;74.20;;;;;;4941928;28;20038;-63
2024/01/27 00:23:34;;;;;;;6.25;2.13;;;4.50;74.10;;;;;;4946229;28;20059;-64
2024/01/27 00:26:01;;;;;;;3.78;2.22;;;4.50;74.10;;;;;;4949575;28;20403;-63
2024/01/27 00:28:26;;;;;;;5.57;2.30;;;4.40;74.30;;;;;;4932409;28;20553;-62
2024/01/27 00:30:52;;;;;;;7.00;2.40;;;4.50;74.30;;;;;;4938868;28;20031;-62
2024/01/27 00:33:18;;;;;;;3.53;2.00;;;4.50;74.40;;;;;;4941717;28;20037;-63
2024/01/27 00:35:43;;;;;;;3.30;1.80;;;4.50;74.40;;;;;;4950189;28;20106;-62
2024/01/27 00:38:09;;;;;;;7.75;2.30;;;4.50;74.40;;;;;;4942805;28;20118;-62
2024/01/27 00:40:35;;;;;;;6.68;2.20;;;4.60;74.50;;;;;;4950751;28;20039;-62
2024/01/27 00:43:03;;;;;;;3.58;2.03;;;4.60;74.60;;;;;;4945964;28;20027;-61
2024/01/27 00:45:30;;;;;;;9.38;2.35;;;4.70;74.30;;;;;;4854946;28;20039;-64
2024/01/27 00:47:56;;;;;;;6.40;2.05;;;4.70;74.20;;;;;;4952281;28;20026;-64
2024/01/27 00:50:22;;;;;;;5.85;2.53;;;4.70;74.10;;;;;;4941804;28;20039;-62
2024/01/27 00:52:48;;;;;;;5.10;2.15;;;4.80;74.00;;;;;;4942766;28;20037;-61
2024/01/27 00:55:14;;;;;;;6.93;2.20;;;4.80;74.00;;;;;;4945878;28;20046;-61
2024/01/27 00:57:40;;;;;;;12.35;2.55;;;4.80;73.80;;;;;;4947404;28;20079;-63
2024/01/27 01:00:08;;;;;;;3.78;1.65;;;4.80;73.50;;;;;;4948949;28;20069;-64
2024/01/27 01:02:34;;;;;;;8.68;1.88;;;4.80;73.30;;;;;;4946624;28;20102;-63
2024/01/27 01:05:00;;;;;;;5.05;1.98;;;4.80;73.30;;;;;;4945061;28;20089;-62
2024/01/27 01:07:26;;;;;;;10.15;2.15;;;4.80;73.10;;;;;;4944820;28;20126;-63
2024/01/27 01:09:51;;;;;;;4.18;1.67;;;4.70;72.90;;;;;;4943317;28;20094;-62
2024/01/27 01:12:17;;;;;;;8.88;1.90;;;4.70;72.90;;;;;;4946634;28;20039;-61
2024/01/27 01:14:45;;;;;;;5.63;1.70;;;4.60;72.90;;;;;;4943359;28;20049;-62
2024/01/27 01:17:11;;;;;;;6.35;1.92;;;4.60;73.00;;;;;;4943735;28;20122;-63
2024/01/27 01:19:38;;;;;;;6.00;2.10;;;4.50;72.90;;;;;;4941159;28;20579;-62
2024/01/27 01:22:04;;;;;;;5.53;2.03;;;4.50;73.10;;;;;;4946633;28;20122;-63
2024/01/27 01:24:30;;;;;;;2.92;1.80;;;4.40;73.20;;;;;;4953928;28;20155;-62
2024/01/27 01:26:56;;;;;;;6.18;2.35;;;4.40;73.30;;;;;;4946987;28;20486;-63
2024/01/27 01:29:22;;;;;;;5.88;1.65;;;4.40;73.40;;;;;;4938183;28;20044;-63
2024/01/27 01:31:48;;;;;;;4.72;1.90;;;4.40;73.50;;;;;;4943805;28;20026;-62
2024/01/27 01:34:13;;;;;;;8.48;1.83;;;4.30;73.70;;;;;;4947547;28;20407;-62
2024/01/27 01:36:39;;;;;;;7.07;1.80;;;4.30;73.70;;;;;;4943596;28;20039;-64
2024/01/27 01:39:06;;;;;;;4.63;1.75;;;4.30;73.70;;;;;;4947614;28;20031;-61
2024/01/27 01:41:31;;;;;;;3.25;1.40;;;4.30;73.70;;;;;;4942340;28;20687;-64
2024/01/27 01:43:57;;;;;;;7.15;1.77;;;4.20;73.70;;;;;;4948236;28;20043;-63
2024/01/27 01:46:26;;;;;;;7.65;1.65;;;4.20;73.70;;;;;;4873571;28;20119;-63
2024/01/27 01:48:52;;;;;;;8.10;1.92;;;4.20;73.70;;;;;;4947311;28;20030;-63
2024/01/27 01:51:17;;;;;;;4.07;1.60;;;4.20;73.70;;;;;;4945560;28;20041;-62
2024/01/27 01:53:47;;;;;;;5.97;1.80;;;4.20;73.70;;;;;;4941649;28;20039;-63
2024/01/27 01:56:15;;;;;;;4.18;1.92;;;4.10;73.50;;;;;;4950994;28;20023;-62
2024/01/27 01:58:41;;;;;;;6.38;1.98;;;4.10;73.40;;;;;;4943039;28;20026;-63
2024/01/27 02:01:07;;;;;;;4.35;1.83;;;4.10;73.40;;;;;;4947563;28;20031;-62
2024/01/27 02:03:32;;;;;;;10.25;2.22;;;4.10;73.50;;;;;;4946370;28;20047;-62
2024/01/27 02:05:58;;;;;;;7.05;2.40;;;4.00;73.50;;;;;;4945185;28;20051;-63
2024/01/27 02:08:23;;;;;;;7.43;2.65;;;4.00;73.60;;;;;;4946058;28;20053;-62
2024/01/27 02:10:49;;;;;;;6.80;2.65;;;4.00;73.40;;;;;;4945898;28;20425;-63
2024/01/27 02:13:22;;;;;;;7.43;2.83;;;3.90;73.20;;;;;;4945190;28;20023;-62
2024/01/27 02:15:50;;;;;;;5.88;2.40;;;3.90;73.10;;;;;;4943641;28;20049;-63
2024/01/27 02:18:16;;;;;;;9.15;3.20;;;3.90;73.10;;;;;;4945992;28;20093;-63
2024/01/27 02:20:42;;;;;;;13.35;4.35;;;3.80;73.00;;;;;;4945269;28;20146;-61
2024/01/27 02:23:08;;;;;;;8.10;3.38;;;3.80;73.00;;;;;;4942925;28;20066;-62
2024/01/27 02:25:35;;;;;;;13.50;3.70;;;3.80;73.20;;;;;;4944366;28;20038;-63
2024/01/27 02:28:04;;;;;;;7.82;3.90;;;3.70;73.20;;;;;;4944473;28;20024;-63
2024/01/27 02:30:30;;;;;;;9.85;4.00;;;3.70;73.20;;;;;;4942985;28;20042;-62
2024/01/27 02:32:57;;;;;;;13.68;4.25;;;3.70;73.20;;;;;;4947098;28;20031;-62
2024/01/27 02:35:23;;;;;;;9.80;4.00;;;3.70;73.20;;;;;;4949966;28;20150;-61
2024/01/27 02:37:48;;;;;;;8.02;4.07;;;3.60;73.00;;;;;;4946388;28;20434;-62
2024/01/27 02:40:14;;;;;;;7.88;2.90;;;3.60;73.00;;;;;;4943871;28;20127;-62
2024/01/27 02:42:42;;;;;;;9.68;1.90;;;3.60;73.20;;;;;;4950978;28;20114;-61
2024/01/27 02:45:08;;;;;;;3.88;2.15;;;3.50;73.40;;;;;;4849663;28;21056;-60
2024/01/27 02:47:34;;;;;;;5.85;1.95;;;3.50;73.70;;;;;;4948631;28;20046;-62
2024/01/27 02:49:59;;;;;;;5.00;2.03;;;3.50;73.90;;;;;;4949924;28;20031;-61
2024/01/27 02:52:26;;;;;;;6.72;2.00;;;3.50;73.90;;;;;;4942157;28;20102;-64
2024/01/27 02:54:53;;;;;;;6.90;2.53;;;3.50;73.80;;;;;;4951479;28;20099;-63
2024/01/27 02:57:19;;;;;;;7.40;2.00;;;3.50;74.10;;;;;;4948865;28;20480;-61
2024/01/27 02:59:48;;;;;;;5.00;2.08;;;3.50;74.40;;;;;;4944760;28;20028;-63
2024/01/27 03:02:14;;;;;;;6.95;2.10;;;3.50;74.40;;;;;;4948080;28;20404;-62
2024/01/27 03:04:40;;;;;;;5.22;2.17;;;3.50;74.40;;;;;;4950036;28;20039;-63
2024/01/27 03:07:05;;;;;;;4.03;2.05;;;3.50;74.50;;;;;;4949987;28;20043;-62
2024/01/27 03:09:31;;;;;;;6.60;1.95;;;3.50;74.50;;;;;;4948102;28;20030;-63
2024/01/27 03:11:58;;;;;;;6.88;3.20;;;3.50;74.40;;;;;;4948291;28;20460;-63
2024/01/27 03:14:24;;;;;;;7.28;2.58;;;3.50;74.90;;;;;;4949441;28;20056;-62
2024/01/27 03:16:50;;;;;;;5.13;2.17;;;3.50;74.30;;;;;;4947751;28;20023;-63
2024/01/27 03:19:15;;;;;;;8.45;2.95;;;3.50;74.10;;;;;;4957437;28;20658;-64
2024/01/27 03:21:41;;;;;;;10.52;2.53;;;3.50;74.10;;;;;;4946853;28;20031;-62
2024/01/27 03:24:07;;;;;;;6.35;2.92;;;3.50;74.10;;;;;;4949301;28;20118;-62
2024/01/27 03:26:33;;;;;;;11.25;3.28;;;3.50;74.10;;;;;;4946006;28;20031;-63
2024/01/27 03:28:59;;;;;;;9.98;2.67;;;3.50;74.10;;;;;;4951685;28;20030;-63
2024/01/27 03:31:34;;;;;;;8.25;2.83;;;3.50;74.10;;;;;;4942006;28;20039;-62
2024/01/27 03:34:00;;;;;;;6.25;2.70;;;3.40;73.90;;;;;;4934612;28;20110;-62
2024/01/27 03:36:26;;;;;;;9.70;3.33;;;3.40;73.80;;;;;;4946259;28;20742;-63
2024/01/27 03:38:52;;;;;;;5.75;2.70;;;3.40;73.80;;;;;;4946110;28;20427;-62
2024/01/27 03:41:18;;;;;;;5.53;2.88;;;3.40;73.90;;;;;;4949763;28;20050;-62
2024/01/27 03:43:43;;;;;;;5.90;2.63;;;3.40;73.90;;;;;;4949649;28;20132;-61
2024/01/27 03:46:09;;;;;;;5.43;2.63;;;3.40;73.90;;;;;;4874964;28;20058;-62
2024/01/27 03:48:35;;;;;;;4.88;2.70;;;3.30;73.90;;;;;;4949427;28;20498;-62
2024/01/27 03:51:01;;;;;;;8.35;2.70;;;3.30;73.90;;;;;;4948169;28;20035;-62
2024/01/27 03:53:27;;;;;;;10.23;3.60;;;3.30;74.00;;;;;;4940149;28;20031;-64
2024/01/27 03:55:53;;;;;;;6.60;2.83;;;3.20;73.90;;;;;;4946974;28;20040;-62
2024/01/27 03:58:19;;;;;;;5.82;2.70;;;3.20;73.90;;;;;;4943772;28;21673;-61
2024/01/27 04:00:45;;;;;;;9.30;2.80;;;3.20;74.30;;;;;;4948438;28;20035;-62
2024/01/27 04:03:11;;;;;;;7.25;2.83;;;3.10;74.50;;;;;;4952231;28;20067;-62
2024/01/27 04:05:37;;;;;;;8.00;2.72;;;3.10;74.50;;;;;;4946829;28;20083;-62
2024/01/27 04:08:04;;;;;;;10.00;2.75;;;3.10;74.70;;;;;;4944400;28;20055;-63
2024/01/27 04:10:30;;;;;;;8.80;3.30;;;3.20;74.70;;;;;;4946206;28;20037;-62
2024/01/27 04:12:55;;;;;;;6.45;2.55;;;3.10;74.70;;;;;;4950803;28;20031;-63
2024/01/27 04:15:21;;;;;;;6.60;3.05;;;3.10;74.70;;;;;;4943178;28;20074;-61
2024/01/27 04:17:47;;;;;;;8.38;2.97;;;3.10;74.70;;;;;;4949321;28;20034;-63
2024/01/27 04:20:12;;;;;;;8.80;2.85;;;3.10;74.70;;;;;;4948240;28;20111;-61
2024/01/27 04:22:39;;;;;;;17.00;3.47;;;3.20;74.50;;;;;;4947104;28;20069;-62
2024/01/27 04:25:05;;;;;;;5.53;2.95;;;3.10;74.30;;;;;;4943113;28;20035;-63
2024/01/27 04:27:32;;;;;;;6.47;2.85;;;3.10;74.40;;;;;;4942889;28;20556;-62
2024/01/27 04:29:57;;;;;;;9.43;3.15;;;3.10;74.70;;;;;;4950722;28;20028;-63
2024/01/27 04:32:23;;;;;;;7.65;3.45;;;3.10;74.70;;;;;;4952388;28;20028;-62
2024/01/27 04:34:49;;;;;;;5.88;3.03;;;3.20;74.70;;;;;;4948711;28;20101;-62
2024/01/27 04:37:15;;;;;;;7.07;3.03;;;3.10;74.60;;;;;;4947043;28;20039;-61
2024/01/27 04:39:40;;;;;;;6.82;2.65;;;3.10;74.30;;;;;;4945864;28;20474;-63
2024/01/27 04:42:06;;;;;;;8.10;2.88;;;3.10;74.10;;;;;;4946900;28;20367;-62
2024/01/27 04:44:32;;;;;;;6.05;3.28;;;3.10;74.10;;;;;;4954772;28;20137;-64
2024/01/27 04:46:58;;;;;;;10.55;3.33;;;3.10;74.10;;;;;;4863022;29;20569;-62
2024/01/27 04:49:24;;;;;;;8.20;2.85;;;3.10;74.30;;;;;;4946461;28;20034;-62
2024/01/27 04:51:49;;;;;;;8.93;3.47;;;3.00;74.20;;;;;;4928205;28;20130;-62
2024/01/27 04:54:15;;;;;;;11.80;3.58;;;3.00;74.30;;;;;;4943682;28;20031;-62
2024/01/27 04:56:41;;;;;;;11.52;3.70;;;3.00;74.30;;;;;;4941576;28;20497;-63
2024/01/27 04:59:07;;;;;;;13.48;3.42;;;3.00;74.40;;;;;;4942507;28;20135;-63
2024/01/27 05:01:33;;;;;;;12.20;3.55;;;3.00;74.40;;;;;;4943368;28;20131;-63
2024/01/27 05:03:59;;;;;;;10.00;3.78;;;3.00;74.30;;;;;;4949718;28;20349;-61
2024/01/27 05:06:25;;;;;;;11.30;4.35;;;3.00;74.20;;;;;;4943743;28;20058;-61
2024/01/27 05:08:50;;;;;;;11.02;3.83;;;2.90;73.90;;;;;;4939205;28;20027;-62
2024/01/27 05:11:26;;;;;;;10.25;4.32;;;2.90;73.80;;;;;;4944975;28;20035;-63
2024/01/27 05:13:52;;;;;;;7.05;3.55;;;2.90;73.90;;;;;;4948389;28;20533;-62
2024/01/27 05:16:17;;;;;;;9.57;3.63;;;2.80;73.70;;;;;;4944738;28;20043;-62
2024/01/27 05:18:43;;;;;;;7.68;3.85;;;2.80;73.70;;;;;;4947295;28;20023;-61
2024/01/27 05:21:09;;;;;;;10.38;4.55;;;2.80;73.70;;;;;;4946673;28;20122;-62
2024/01/27 05:23:34;;;;;;;15.07;6.53;;;2.80;73.70;;;;;;4947894;28;20035;-63
2024/01/27 05:26:00;;;;;;;23.33;7.03;;;2.70;73.90;;;;;;4955441;28;20450;-63
2024/01/27 05:28:26;;;;;;;15.73;6.47;;;2.70;74.20;;;;;;4947575;28;20035;-62
2024/01/27 05:30:51;;;;;;;13.57;6.32;;;2.70;74.40;;;;;;4943588;28;20058;-62
2024/01/27 05:33:17;;;;;;;14.40;5.47;;;2.70;74.50;;;;;;4944593;28;20114;-63
2024/01/27 05:35:42;;;;;;;11.85;4.57;;;2.70;74.60;;;;;;4944061;28;20511;-61
2024/01/27 05:38:08;;;;;;;9.40;4.68;;;2.70;74.40;;;;;;4949557;28;20039;-61
2024/01/27 05:40:34;;;;;;;12.52;4.97;;;2.70;74.20;;;;;;4941560;28;20102;-62
2024/01/27 05:43:00;;;;;;;15.82;4.55;;;2.70;74.10;;;;;;4941751;28;20059;-62
2024/01/27 05:45:26;;;;;;;8.63;4.15;;;2.70;74.00;;;;;;4946305;28;20415;-61
2024/01/27 05:47:52;;;;;;;12.50;4.45;;;2.70;74.00;;;;;;4948048;28;20027;-61
2024/01/27 05:50:18;;;;;;;8.20;3.95;;;2.60;73.90;;;;;;4949241;28;20097;-62
2024/01/27 05:52:43;;;;;;;10.50;3.90;;;2.60;73.90;;;;;;4943484;28;20038;-63
2024/01/27 05:55:11;;;;;;;7.35;3.67;;;2.60;73.90;;;;;;4948176;28;20035;-62
2024/01/27 05:57:37;;;;;;;9.80;4.07;;;2.50;73.90;;;;;;4946140;28;20034;-62
2024/01/27 06:00:03;;;;;;;7.07;3.30;;;2.50;73.90;;;;;;4947340;28;20023;-63
2024/01/27 06:02:28;;;;;;;6.43;2.90;;;2.50;73.70;;;;;;4950891;28;20497;-61
2024/01/27 06:04:54;;;;;;;7.22;3.33;;;2.50;73.80;;;;;;4922498;29;20055;-62
2024/01/27 06:07:19;;;;;;;5.97;3.17;;;2.40;73.60;;;;;;4943681;28;20035;-63
2024/01/27 06:09:45;;;;;;;9.15;3.83;;;2.40;73.40;;;;;;4938380;28;20824;-61
2024/01/27 06:12:11;;;;;;;10.13;3.85;;;2.40;73.40;;;;;;4931643;28;20502;-61
2024/01/27 06:14:36;;;;;;;12.35;4.55;;;2.30;73.90;;;;;;4941334;28;20058;-61
2024/01/27 06:17:05;;;;;;;8.38;3.38;;;2.30;73.20;;;;;;4948869;28;20823;-61
2024/01/27 06:19:31;;;;;;;10.68;3.60;;;2.30;73.40;;;;;;4945892;28;20031;-63
2024/01/27 06:21:57;;;;;;;7.45;3.72;;;2.30;73.50;;;;;;4947465;28;20037;-62
2024/01/27 06:24:22;;;;;;;9.20;3.90;;;2.20;73.40;;;;;;4952702;28;20070;-61
2024/01/27 06:26:48;;;;;;;12.80;4.85;;;2.20;73.40;;;;;;4947219;28;20379;-62
2024/01/27 06:29:14;;;;;;;8.40;4.00;;;2.20;73.40;;;;;;4935789;29;20060;-61
2024/01/27 06:31:40;;;;;;;10.80;4.43;;;2.20;73.50;;;;;;4948663;28;20027;-63
2024/01/27 06:34:06;;;;;;;10.35;4.30;;;2.10;73.50;;;;;;4950969;28;20035;-62
2024/01/27 06:36:32;;;;;;;8.90;3.78;;;2.10;73.50;;;;;;4952803;28;20022;-62
2024/01/27 06:38:58;;;;;;;10.10;3.78;;;2.10;73.60;;;;;;4951309;28;20548;-62
2024/01/27 06:41:23;;;;;;;9.43;3.83;;;2.10;73.50;;;;;;4952088;28;20031;-62
2024/01/27 06:43:49;;;;;;;14.05;3.78;;;2.00;73.60;;;;;;4947712;28;20075;-62
2024/01/27 06:46:15;;;;;;;8.77;3.33;;;2.00;73.70;;;;;;4856862;28;20039;-62
2024/01/27 06:48:41;;;;;;;9.95;3.13;;;2.00;73.90;;;;;;4953651;28;20506;-62
2024/01/27 06:51:06;;;;;;;8.77;3.65;;;2.00;74.00;;;;;;4953966;28;20023;-61
2024/01/27 06:53:32;;;;;;;12.82;3.40;;;2.00;74.30;;;;;;4952077;28;20042;-62
2024/01/27 06:55:57;;;;;;;5.95;2.47;;;2.00;74.90;;;;;;4948250;28;20630;-63
2024/01/27 06:58:23;;;;;;;13.02;2.88;;;2.00;75.10;;;;;;4945497;28;20056;-63
2024/01/27 07:00:49;;;;;;;14.63;5.93;;;2.10;75.10;;;;;;4947240;28;20083;-64
2024/01/27 07:03:15;;;;;;;17.63;4.90;;;2.10;74.80;;;;;;4949762;28;20519;-62
2024/01/27 07:05:41;;;;;;;10.88;4.63;;;2.10;74.60;;;;;;4951297;28;20047;-61
2024/01/27 07:08:07;;;;;;;8.65;5.07;;;2.10;74.40;;;;;;4950578;28;20080;-62
2024/01/27 07:10:34;;;;;;;11.50;5.30;;;2.10;74.20;;;;;;4950428;28;20082;-61
2024/01/27 07:12:59;;;;;;;14.48;4.90;;;2.10;74.20;;;;;;4940958;28;20517;-64
2024/01/27 07:15:26;;;;;;;11.93;4.07;;;2.00;74.10;;;;;;4950526;28;20031;-63
2024/01/27 07:17:53;;;;;;;9.18;3.75;;;2.00;74.30;;;;;;4944313;28;20043;-63
2024/01/27 07:20:20;;;;;;;9.98;4.03;;;2.00;74.30;;;;;;4949332;28;20054;-65
2024/01/27 07:22:48;;;;;;;10.73;4.40;;;2.00;74.40;;;;;;4948697;28;20094;-65
2024/01/27 07:25:14;;;;;;;19.05;8.80;;;2.10;74.60;;;;;;4948874;28;20051;-63
2024/01/27 07:27:40;;;;;;;20.55;9.57;;;2.00;74.50;;;;;;4947931;28;20027;-64
2024/01/27 07:30:09;;;;;;;21.52;11.02;;;2.10;74.50;;;;;;4946320;28;20039;-64
2024/01/27 07:32:34;;;;;;;33.53;15.32;;;2.10;74.60;;;;;;4945202;28;20028;-63
2024/01/27 07:35:01;;;;;;;27.98;11.80;;;2.10;74.50;;;;;;4945188;28;20491;-63
2024/01/27 07:37:27;;;;;;;20.27;10.43;;;2.10;74.40;;;;;;4946183;28;20031;-64
2024/01/27 07:39:52;;;;;;;17.67;6.93;;;2.10;74.20;;;;;;4948674;28;20046;-63
2024/01/27 07:42:18;;;;;;;15.48;5.55;;;2.10;74.30;;;;;;4943093;28;20082;-63
2024/01/27 07:44:45;;;;;;;15.30;4.97;;;2.40;74.50;;;;;;4919643;28;20497;-63
2024/01/27 07:47:11;;;;;;;12.57;4.82;;;2.20;74.30;;;;;;4930340;29;20577;-64
2024/01/27 07:49:36;;;;;;;7.57;4.53;;;2.20;74.40;;;;;;4948061;28;20031;-63
2024/01/27 07:52:03;;;;;;;11.57;5.05;;;2.20;74.40;;;;;;4946079;28;20035;-63
2024/01/27 07:54:31;;;;;;;11.18;5.43;;;2.20;74.50;;;;;;4955147;28;20023;-64
2024/01/27 07:56:56;;;;;;;13.95;6.20;;;2.30;74.70;;;;;;4948209;28;20038;-63
2024/01/27 07:59:22;;;;;;;18.38;6.57;;;2.30;74.90;;;;;;4946984;28;20031;-63
2024/01/27 08:01:47;;;;;;;14.70;6.13;;;2.30;75.00;;;;;;4949038;28;20379;-63
2024/01/27 08:04:15;;;;;;;14.68;6.15;;;2.40;75.00;;;;;;4948033;28;20406;-64
2024/01/27 08:06:49;;;;;;;13.70;5.95;;;2.40;75.10;;;;;;4946988;28;20047;-63
2024/01/27 08:09:15;;;;;;;13.65;6.70;;;2.50;75.20;;;;;;4957641;28;20039;-64
2024/01/27 08:11:41;;;;;;;19.17;6.07;;;2.50;75.20;;;;;;4962721;28;20107;-63
2024/01/27 08:14:06;;;;;;;12.18;5.03;;;2.60;75.70;;;;;;4959264;28;20457;-64
2024/01/27 08:16:32;;;;;;;12.23;5.72;;;2.60;75.70;;;;;;4939728;28;20418;-64
2024/01/27 08:18:57;;;;;;;15.95;5.95;;;2.70;75.90;;;;;;4957309;28;20059;-64
2024/01/27 08:21:23;;;;;;;14.35;6.30;;;2.80;76.10;;;;;;4956617;28;20027;-64
2024/01/27 08:23:49;;;;;;;25.40;6.13;;;2.90;76.10;;;;;;4950871;28;20059;-62
2024/01/27 08:26:15;;;;;;;14.63;5.75;;;3.10;76.10;;;;;;4945553;28;20039;-63
2024/01/27 08:28:41;;;;;;;10.15;4.97;;;3.20;75.90;;;;;;4949854;28;20031;-63
2024/01/27 08:31:07;;;;;;;14.93;5.63;;;3.30;75.80;;;;;;4943058;28;20507;-64
2024/01/27 08:33:32;;;;;;;17.42;5.55;;;3.40;75.80;;;;;;4941594;28;20031;-63
2024/01/27 08:35:58;;;;;;;10.45;4.65;;;3.60;75.80;;;;;;4950421;28;20533;-64
2024/01/27 08:38:23;;;;;;;9.00;4.97;;;3.70;75.60;;;;;;4948982;28;20031;-64
2024/01/27 08:40:49;;;;;;;14.95;5.18;;;3.80;75.50;;;;;;4950561;28;20039;-64
2024/01/27 08:43:15;;;;;;;12.82;5.22;;;4.20;75.60;;;;;;4951115;28;20019;-65
2024/01/27 08:45:41;;;;;;;17.48;6.88;;;4.10;75.30;;;;;;4889673;28;21226;-62
2024/01/27 08:48:07;;;;;;;25.05;11.40;;;4.30;75.00;;;;;;4948333;28;20037;-63
2024/01/27 08:50:34;;;;;;;19.67;9.18;;;4.40;74.80;;;;;;4943893;28;20039;-65
2024/01/27 08:52:59;;;;;;;14.45;7.07;;;4.50;74.70;;;;;;4946699;28;20026;-63
2024/01/27 08:55:25;;;;;;;12.18;6.20;;;4.70;74.70;;;;;;4942782;28;20046;-64
2024/01/27 08:57:51;;;;;;;15.27;7.30;;;4.80;74.60;;;;;;4947123;28;20042;-63
2024/01/27 09:00:17;;;;;;;22.38;7.68;;;4.90;74.50;;;;;;4952474;28;20042;-63
2024/01/27 09:02:44;;;;;;;14.63;6.25;;;5.00;74.40;;;;;;4947408;28;20418;-64
2024/01/27 09:05:09;;;;;;;14.48;6.00;;;5.20;74.30;;;;;;4927554;28;20070;-64
2024/01/27 09:07:35;;;;;;;14.73;6.57;;;5.30;74.20;;;;;;4943984;28;20539;-64
2024/01/27 09:10:02;;;;;;;12.88;5.72;;;5.40;74.00;;;;;;4947670;28;20035;-64
2024/01/27 09:12:27;;;;;;;17.63;6.20;;;5.50;73.80;;;;;;4949751;28;20046;-64
2024/01/27 09:14:55;;;;;;;17.90;6.65;;;5.60;73.60;;;;;;4948701;28;20414;-64
2024/01/27 09:17:21;;;;;;;26.38;12.30;;;5.70;73.50;;;;;;4947630;28;20043;-64
2024/01/27 09:19:47;;;;;;;22.50;9.23;;;5.80;73.30;;;;;;4950360;28;20064;-65
2024/01/27 09:22:13;;;;;;;24.60;7.68;;;5.90;73.20;;;;;;4952277;28;20031;-63
2024/01/27 09:24:39;;;;;;;18.52;7.15;;;6.00;72.90;;;;;;4951396;28;20810;-65
2024/01/27 09:27:05;;;;;;;17.52;7.55;;;6.10;72.80;;;;;;4947242;28;20122;-65
2024/01/27 09:29:31;;;;;;;35.33;11.98;;;6.20;72.70;;;;;;4931992;28;20034;-63
2024/01/27 09:31:56;;;;;;;24.65;9.50;;;6.30;72.80;;;;;;4950385;28;20530;-65
2024/01/27 09:34:22;;;;;;;14.85;6.95;;;6.40;72.60;;;;;;4943989;28;20054;-66
2024/01/27 09:36:48;;;;;;;15.23;5.82;;;6.50;72.50;;;;;;4943388;28;20386;-64
2024/01/27 09:39:13;;;;;;;13.90;5.55;;;6.60;72.30;;;;;;4947212;28;20681;-66
2024/01/27 09:41:40;;;;;;;20.05;5.60;;;6.70;72.10;;;;;;4947844;28;20142;-65
2024/01/27 09:44:06;;;;;;;11.65;5.57;;;6.80;71.90;;;;;;4946484;28;20482;-65
2024/01/27 09:46:32;;;;;;;13.82;4.43;;;6.90;71.70;;;;;;4913851;28;20467;-65
2024/01/27 09:48:58;;;;;;;10.52;4.13;;;7.10;71.50;;;;;;4948692;28;20118;-65
2024/01/27 09:51:25;;;;;;;12.50;3.75;;;7.20;71.10;;;;;;4950182;28;20031;-66
2024/01/27 09:53:52;;;;;;;10.18;3.08;;;7.30;70.80;;;;;;4944593;28;20566;-65
2024/01/27 09:56:18;;;;;;;11.75;3.58;;;7.40;70.70;;;;;;4951534;28;20050;-65
2024/01/27 09:58:45;;;;;;;10.75;3.15;;;7.50;69.90;;;;;;4949789;28;20054;-65
2024/01/27 10:01:11;;;;;;;10.15;3.03;;;7.60;69.60;;;;;;4949982;28;20553;-64
2024/01/27 10:03:40;;;;;;;8.20;2.92;;;7.60;69.30;;;;;;4951429;28;20106;-65
2024/01/27 10:06:08;;;;;;;11.55;2.60;;;7.70;69.10;;;;;;4943923;28;20050;-64
2024/01/27 10:08:34;;;;;;;12.00;3.40;;;7.80;69.00;;;;;;4947998;28;20027;-67
2024/01/27 10:11:06;;;;;;;8.13;2.95;;;7.80;68.90;;;;;;4957057;28;20078;-65
2024/01/27 10:13:32;;;;;;;11.75;2.72;;;7.90;69.00;;;;;;4948105;28;20030;-65
2024/01/27 10:16:05;;;;;;;9.70;2.90;;;7.90;68.80;;;;;;4944402;28;20118;-66
2024/01/27 10:18:32;;;;;;;12.43;3.00;;;8.00;67.90;;;;;;4944912;28;20042;-65
2024/01/27 10:20:58;;;;;;;12.00;3.10;;;8.10;68.20;;;;;;4946797;28;20376;-66
2024/01/27 10:23:24;;;;;;;7.13;2.75;;;8.10;68.30;;;;;;4949000;28;20034;-65
2024/01/27 10:25:51;;;;;;;7.75;2.65;;;8.20;68.10;;;;;;4946030;28;20305;-65
2024/01/27 10:28:17;;;;;;;10.77;2.78;;;8.20;68.10;;;;;;4939897;28;20510;-65
2024/01/27 10:30:48;;;;;;;8.88;2.97;;;8.30;68.10;;;;;;4934482;28;20035;-66
2024/01/27 10:33:14;;;;;;;13.70;2.83;;;8.40;67.90;;;;;;4942596;28;20046;-65
2024/01/27 10:35:43;;;;;;;6.50;2.67;;;8.40;67.80;;;;;;4941420;28;20028;-66
2024/01/27 10:38:09;;;;;;;7.72;2.63;;;8.50;67.20;;;;;;4947109;28;20046;-64
2024/01/27 10:40:38;;;;;;;4.65;2.28;;;8.60;67.30;;;;;;4949938;28;20035;-65
2024/01/27 10:43:08;;;;;;;7.07;3.00;;;8.70;66.90;;;;;;4943535;28;20165;-66
2024/01/27 10:45:41;;;;;;;13.18;2.95;;;8.80;67.30;;;;;;4939193;28;20077;-66
2024/01/27 10:48:10;;;;;;;9.25;3.05;;;8.80;66.30;;;;;;4951165;28;20035;-65
2024/01/27 10:50:39;;;;;;;10.77;3.35;;;8.90;66.40;;;;;;4946157;28;20031;-66
2024/01/27 10:53:09;;;;;;;6.25;2.72;;;8.90;65.90;;;;;;4943204;28;20058;-65
2024/01/27 10:55:35;;;;;;;11.52;3.55;;;9.00;65.70;;;;;;4950546;28;20031;-65
2024/01/27 10:58:02;;;;;;;17.10;3.58;;;9.00;65.80;;;;;;4945096;28;20022;-66
2024/01/27 11:00:30;;;;;;;9.55;3.75;;;9.10;65.80;;;;;;4939721;28;20038;-66
2024/01/27 11:03:02;;;;;;;10.88;3.20;;;9.10;65.80;;;;;;4930414;28;20466;-66
2024/01/27 11:05:31;;;;;;;10.60;2.80;;;9.20;65.60;;;;;;4948967;28;20058;-66
2024/01/27 11:07:59;;;;;;;9.35;2.67;;;9.20;65.90;;;;;;4944748;28;20032;-66
2024/01/27 11:10:26;;;;;;;11.57;2.70;;;9.30;65.50;;;;;;4948734;28;20922;-66
2024/01/27 11:12:54;;;;;;;12.45;4.53;;;9.40;65.70;;;;;;4947559;28;20031;-66
2024/01/27 11:15:21;;;;;;;7.47;3.42;;;9.40;65.80;;;;;;4951707;28;20494;-65
2024/01/27 11:17:46;;;;;;;9.80;3.42;;;9.50;65.20;;;;;;4948872;28;20058;-65
2024/01/27 11:20:13;;;;;;;12.95;3.72;;;9.60;65.30;;;;;;4952887;28;20038;-66
2024/01/27 11:22:40;;;;;;;8.70;3.10;;;9.60;65.10;;;;;;4936003;28;20074;-66
2024/01/27 11:25:16;;;;;;;7.97;3.15;;;9.70;64.60;;;;;;4948125;28;20445;-66
2024/01/27 11:27:43;;;;;;;7.93;2.45;;;9.80;64.20;;;;;;4947498;28;20034;-66
2024/01/27 11:30:31;;;;;;;7.30;3.13;;;9.80;64.10;;;;;;4946584;28;20043;-66
2024/01/27 11:33:00;;;;;;;9.52;3.47;;;9.80;62.80;;;;;;4933315;28;20071;-66
2024/01/27 11:35:26;;;;;;;12.73;3.60;;;9.90;64.30;;;;;;4948936;28;20031;-63
2024/01/27 11:37:52;;;;;;;11.98;4.00;;;9.90;64.00;;;;;;4947826;28;20099;-64
2024/01/27 11:40:18;;;;;;;11.90;3.50;;;9.90;64.20;;;;;;4949029;28;20063;-63
2024/01/27 11:42:56;;;;;;;11.45;3.95;;;10.00;63.50;;;;;;4950458;28;20059;-64
2024/01/27 11:45:23;;;;;;;12.40;3.42;;;10.00;63.50;;;;;;4860236;28;20050;-63
2024/01/27 11:47:49;;;;;;;10.18;3.50;;;10.00;63.90;;;;;;4948034;28;20031;-65
2024/01/27 11:50:17;;;;;;;18.80;3.78;;;10.10;63.70;;;;;;4950771;28;20027;-64
2024/01/27 11:52:43;;;;;;;9.35;3.38;;;10.10;63.70;;;;;;4948247;28;20453;-63
2024/01/27 11:55:09;;;;;;;10.02;3.25;;;10.10;63.20;;;;;;4948925;28;20557;-64
2024/01/27 11:57:35;;;;;;;7.30;3.22;;;10.20;63.40;;;;;;4947066;28;20070;-63
2024/01/27 12:00:00;;;;;;;10.57;2.70;;;10.20;63.50;;;;;;4952711;28;20027;-65
2024/01/27 12:02:26;;;;;;;9.85;3.20;;;10.20;63.40;;;;;;4955240;28;20031;-65
2024/01/27 12:04:52;;;;;;;11.30;3.45;;;10.30;63.10;;;;;;4953743;28;20047;-65
2024/01/27 12:07:19;;;;;;;8.65;2.97;;;10.30;62.90;;;;;;4953594;28;20481;-63
2024/01/27 12:09:45;;;;;;;11.07;2.60;;;10.40;62.80;;;;;;4945838;28;20027;-65
2024/01/27 12:12:12;;;;;;;7.03;2.67;;;10.40;62.60;;;;;;4956296;28;20559;-63
2024/01/27 12:14:45;;;;;;;11.32;3.15;;;10.50;62.10;;;;;;4942456;28;20046;-66
2024/01/27 12:17:11;;;;;;;13.43;3.08;;;10.50;61.80;;;;;;4942753;28;20077;-65
2024/01/27 12:19:37;;;;;;;7.72;2.88;;;10.50;61.70;;;;;;4926483;28;20036;-65
2024/01/27 12:22:04;;;;;;;9.30;2.90;;;10.50;61.50;;;;;;4951272;28;20030;-64
2024/01/27 12:24:33;;;;;;;9.27;2.63;;;10.50;61.10;;;;;;4951522;28;20129;-65
2024/01/27 12:26:59;;;;;;;5.95;2.30;;;10.50;61.10;;;;;;4946426;28;20470;-64
2024/01/27 12:29:25;;;;;;;7.78;2.25;;;10.60;61.20;;;;;;4949070;28;20415;-63
2024/01/27 12:31:51;;;;;;;8.90;3.22;;;10.60;61.10;;;;;;4948374;28;20027;-63
2024/01/27 12:34:19;;;;;;;7.18;2.78;;;10.60;60.60;;;;;;4950127;28;20039;-63
2024/01/27 12:36:44;;;;;;;8.50;3.33;;;10.70;60.70;;;;;;4948842;28;20110;-65
2024/01/27 12:39:10;;;;;;;9.05;2.70;;;10.80;60.50;;;;;;4949731;28;20115;-64
2024/01/27 12:41:36;;;;;;;8.95;2.70;;;10.80;60.80;;;;;;4946764;28;20058;-63
2024/01/27 12:44:03;;;;;;;7.90;3.08;;;10.90;60.40;;;;;;4931677;28;20091;-65
2024/01/27 12:46:29;;;;;;;8.02;2.70;;;10.90;60.30;;;;;;4851497;28;20024;-65